Time;durP1;ratioP1;P1;durP2;ratioP2;P2;SDS_P1;SDS_P2;PMS_P1;PMS_P2;Temp;Humidity;BMP_temperature;BMP_pressure;BME280_temperature;BME280_humidity;BME280_pressure;Samples;Min_cycle;Max_cycle;Signal;HPM_P1;HPM_P2
2022/12/01 00:01:06;;;;;;;47.13;15.73;;;;;;;2.85;97.00;102290.47;5092197;28;20452;-69
2022/12/01 00:03:33;;;;;;;43.57;17.87;;;;;;;2.96;96.04;102292.50;5093594;28;20516;-69
2022/12/01 00:06:03;;;;;;;67.63;20.20;;;;;;;2.99;95.02;102291.28;5093844;28;20476;-69
2022/12/01 00:08:30;;;;;;;62.17;17.43;;;;;;;2.89;95.75;102291.72;5092865;28;20483;-69
2022/12/01 00:11:02;;;;;;;47.60;16.70;;;;;;;2.90;95.46;102292.53;5093500;28;20476;-68
2022/12/01 00:13:29;;;;;;;44.10;16.47;;;;;;;2.90;95.73;102292.53;5092284;28;20440;-68
2022/12/01 00:15:56;;;;;;;51.70;17.00;;;;;;;2.93;96.43;102295.63;5092445;28;20461;-68
2022/12/01 00:18:22;;;;;;;47.43;16.63;;;;;;;2.92;97.37;102296.66;5092762;28;20487;-71
2022/12/01 00:20:54;;;;;;;57.67;16.73;;;;;;;3.03;97.02;102289.84;5093737;28;20447;-70
2022/12/01 00:23:23;;;;;;;45.33;17.00;;;;;;;3.05;96.84;102287.75;5091757;28;20490;-70
2022/12/01 00:25:49;;;;;;;43.97;17.40;;;;;;;3.03;97.07;102293.34;5091659;28;20479;-71
2022/12/01 00:28:16;;;;;;;50.77;16.97;;;;;;;3.04;97.29;102288.81;5093462;28;20468;-69
2022/12/01 00:30:42;;;;;;;51.70;16.50;;;;;;;3.04;96.81;102292.28;5092128;28;21002;-69
2022/12/01 00:33:09;;;;;;;48.67;15.70;;;;;;;3.10;97.05;102282.63;5093482;28;20441;-69
2022/12/01 00:35:36;;;;;;;67.73;18.03;;;;;;;3.08;96.84;102289.22;5091704;28;20452;-69
2022/12/01 00:38:02;;;;;;;55.47;17.37;;;;;;;2.97;97.07;102285.31;5092922;28;20500;-68
2022/12/01 00:40:30;;;;;;;39.80;17.17;;;;;;;3.03;97.71;102289.84;5091958;28;20465;-69
2022/12/01 00:42:57;;;;;;;70.50;19.03;;;;;;;3.12;97.37;102296.63;5093379;28;20440;-68
2022/12/01 00:45:23;;;;;;;61.80;19.13;;;;;;;3.11;97.20;102289.63;5091334;28;20579;-69
2022/12/01 00:47:50;;;;;;;49.03;17.30;;;;;;;3.11;96.89;102296.84;5073104;28;20544;-69
2022/12/01 00:50:16;;;;;;;50.80;17.90;;;;;;;3.12;96.34;102296.63;5075538;28;20492;-68
2022/12/01 00:52:43;;;;;;;44.50;17.90;;;;;;;3.09;95.42;102296.19;5093019;28;20446;-69
2022/12/01 00:55:09;;;;;;;57.27;16.77;;;;;;;3.04;95.47;102294.16;5091180;28;20941;-69
2022/12/01 00:57:37;;;;;;;53.50;17.10;;;;;;;3.02;95.18;102298.91;5093201;28;20464;-69
2022/12/01 01:00:05;;;;;;;50.73;15.77;;;;;;;3.04;95.04;102304.84;5091974;28;20495;-69
2022/12/01 01:02:32;;;;;;;55.53;16.90;;;;;;;3.03;94.88;102304.03;5090796;28;20456;-69
2022/12/01 01:04:59;;;;;;;57.13;18.03;;;;;;;2.98;95.15;102303.84;5092776;28;21072;-69
2022/12/01 01:07:25;;;;;;;48.60;16.03;;;;;;;2.98;95.01;102306.53;5091309;28;20576;-68
2022/12/01 01:09:52;;;;;;;43.90;16.87;;;;;;;3.00;95.42;102314.34;5093151;28;20483;-69
2022/12/01 01:12:18;;;;;;;48.93;17.50;;;;;;;3.05;95.11;102311.84;5091862;28;20464;-69
2022/12/01 01:14:46;;;;;;;49.53;16.83;;;;;;;3.04;95.04;102305.69;5093102;28;20464;-69
2022/12/01 01:17:13;;;;;;;38.10;14.30;;;;;;;2.92;95.13;102302.00;5091181;28;20508;-69
2022/12/01 01:19:39;;;;;;;59.20;15.37;;;;;;;2.93;95.44;102313.53;5093046;28;20444;-69
2022/12/01 01:22:06;;;;;;;43.27;15.40;;;;;;;2.86;95.96;102312.69;5091989;28;20459;-69
2022/12/01 01:24:33;;;;;;;43.93;14.83;;;;;;;2.88;96.13;102314.16;5091717;28;20576;-68
2022/12/01 01:26:59;;;;;;;48.20;15.90;;;;;;;2.82;96.51;102311.47;5091123;28;20480;-69
2022/12/01 01:29:26;;;;;;;53.47;16.63;;;;;;;2.85;96.46;102306.53;5092980;28;20440;-68
2022/12/01 01:31:53;;;;;;;39.30;15.97;;;;;;;2.87;96.48;102304.47;5091722;28;20480;-69
2022/12/01 01:34:21;;;;;;;48.57;16.87;;;;;;;2.80;96.49;102309.00;5092605;28;20437;-69
2022/12/01 01:36:48;;;;;;;42.63;15.27;;;;;;;2.76;96.64;102305.91;5090837;28;20611;-69
2022/12/01 01:39:15;;;;;;;45.60;17.10;;;;;;;2.83;96.94;102308.56;5072651;28;20443;-69
2022/12/01 01:41:41;;;;;;;56.47;16.97;;;;;;;2.88;96.88;102300.78;5075220;28;20466;-69
2022/12/01 01:44:41;;;;;;;53.87;19.07;;;;;;;3.00;96.44;102298.28;5092716;28;20472;-69
2022/12/01 01:47:09;;;;;;;45.47;17.03;;;;;;;2.97;96.55;102299.53;5091738;28;20555;-69
2022/12/01 01:49:36;;;;;;;63.77;18.53;;;;;;;2.99;96.26;102302.00;5092766;28;20444;-70
2022/12/01 01:52:04;;;;;;;50.37;16.90;;;;;;;2.95;96.21;102306.09;5090824;28;20466;-69
2022/12/01 01:54:35;;;;;;;50.80;16.83;;;;;;;2.93;95.71;102309.00;5092891;28;20437;-69
2022/12/01 01:57:04;;;;;;;36.57;15.33;;;;;;;2.87;95.14;102315.16;5092184;28;20476;-69
2022/12/01 01:59:36;;;;;;;44.00;17.60;;;;;;;2.90;95.08;102304.06;5096024;28;20475;-70
2022/12/01 02:02:04;;;;;;;52.83;17.50;;;;;;;2.86;95.34;102307.34;5094810;28;20452;-69
2022/12/01 02:04:34;;;;;;;62.13;18.97;;;;;;;2.95;95.07;102306.94;5095225;28;20488;-69
2022/12/01 02:07:01;;;;;;;60.70;17.97;;;;;;;2.90;94.26;102301.38;5094590;28;21004;-70
2022/12/01 02:09:27;;;;;;;51.87;16.80;;;;;;;2.84;95.39;102298.72;5094914;28;20502;-69
2022/12/01 02:12:10;;;;;;;42.60;18.17;;;;;;;2.84;94.93;102307.56;5095108;28;20460;-69
2022/12/01 02:15:02;;;;;;;57.00;18.60;;;;;;;2.85;95.08;102295.84;5096098;28;20425;-69
2022/12/01 02:17:35;;;;;;;47.87;17.83;;;;;;;2.82;96.06;102298.91;5075047;28;21009;-69
2022/12/01 02:20:33;;;;;;;48.73;16.57;;;;;;;2.92;96.28;102295.81;5093039;28;21004;-69
2022/12/01 02:23:22;;;;;;;41.67;16.90;;;;;;;2.92;95.80;102295.81;5088849;28;20797;-69
2022/12/01 02:26:02;;;;;;;43.03;17.43;;;;;;;2.88;96.27;102290.06;5075585;28;20550;-69
2022/12/01 02:28:53;;;;;;;42.10;17.73;;;;;;;2.90;95.62;102289.84;5079870;28;20484;-69
2022/12/01 02:31:25;;;;;;;48.83;16.60;;;;;;;2.86;96.21;102285.94;5095713;28;20521;-69
2022/12/01 02:33:57;;;;;;;57.73;17.80;;;;;;;2.85;96.78;102282.44;5094247;28;20456;-69
2022/12/01 02:36:34;;;;;;;64.83;17.80;;;;;;;2.94;96.33;102283.88;5095267;28;20446;-69
2022/12/01 02:39:07;;;;;;;55.57;16.50;;;;;;;2.93;96.38;102286.78;5070208;22;20823;-81
2022/12/01 02:41:39;;;;;;;65.50;20.03;;;;;;;2.96;96.47;102284.47;5049729;28;20454;-81
2022/12/01 02:44:12;;;;;;;51.73;17.87;;;;;;;3.02;96.98;102286.34;5036120;28;20542;-81
2022/12/01 02:46:46;;;;;;;50.47;16.00;;;;;;;3.11;96.44;102289.63;5043716;28;20550;-79
2022/12/01 02:49:16;;;;;;;58.53;20.57;;;;;;;3.11;95.66;102286.13;5049937;28;20522;-80
2022/12/01 02:51:45;;;;;;;44.57;15.40;;;;;;;3.00;96.00;102277.69;5035859;28;20518;-79
2022/12/01 02:54:13;;;;;;;55.87;17.90;;;;;;;2.96;96.48;102276.44;5042184;28;20485;-79
2022/12/01 02:56:43;;;;;;;62.07;17.50;;;;;;;3.00;96.48;102287.56;5055811;28;20505;-80
2022/12/01 02:59:11;;;;;;;58.47;19.30;;;;;;;2.98;95.75;102286.97;5055587;28;20550;-80
2022/12/01 03:01:59;;;;;;;53.40;18.13;;;;;;;2.96;95.78;102283.66;5055823;28;20517;-80
2022/12/01 03:04:41;;;;;;;54.70;18.50;;;;;;;2.91;95.38;102292.31;5057725;28;20478;-80
2022/12/01 03:07:19;;;;;;;64.70;18.47;;;;;;;2.89;95.18;102281.00;5055742;28;20766;-79
2022/12/01 03:10:06;;;;;;;51.57;18.53;;;;;;;2.87;95.22;102280.38;5054299;28;20446;-79
2022/12/01 03:12:39;;;;;;;61.40;18.67;;;;;;;2.80;95.29;102286.78;5056075;28;20430;-80
2022/12/01 03:15:11;;;;;;;56.60;20.80;;;;;;;2.82;95.91;102287.38;5042464;28;20566;-79
2022/12/01 03:17:46;;;;;;;59.27;18.47;;;;;;;2.85;96.30;102284.31;5036023;28;20797;-80
2022/12/01 03:20:19;;;;;;;67.07;18.40;;;;;;;2.83;96.04;102286.34;5050407;28;20517;-81
2022/12/01 03:22:52;;;;;;;63.13;19.93;;;;;;;2.77;96.10;102283.47;5056293;28;20509;-81
2022/12/01 03:25:21;;;;;;;57.20;20.30;;;;;;;2.82;96.46;102282.03;5040921;28;20491;-80
2022/12/01 03:27:55;;;;;;;56.27;17.87;;;;;;;2.84;96.20;102283.50;5036430;28;21027;-79
2022/12/01 03:30:23;;;;;;;42.83;16.03;;;;;;;2.86;96.05;102275.25;5052274;28;20455;-81
2022/12/01 03:33:00;;;;;;;54.90;20.10;;;;;;;2.80;97.52;102276.91;5055614;28;20476;-81
2022/12/01 03:35:33;;;;;;;52.03;17.20;;;;;;;2.89;97.61;102281.00;5035132;28;20518;-82
2022/12/01 03:38:05;;;;;;;65.80;18.57;;;;;;;2.83;98.25;102278.31;5036237;28;20509;-82
2022/12/01 03:40:36;;;;;;;59.07;18.20;;;;;;;2.90;97.98;102287.19;5055300;28;20532;-82
2022/12/01 03:43:07;;;;;;;50.17;15.33;;;;;;;2.88;98.24;102286.53;5055659;28;20462;-83
2022/12/01 03:45:43;;;;;;;56.53;18.77;;;;;;;2.87;97.99;102287.59;5055033;28;20512;-82
2022/12/01 03:48:11;;;;;;;66.33;18.67;;;;;;;2.89;97.85;102290.91;5055085;28;20545;-82
2022/12/01 03:50:46;;;;;;;52.90;16.43;;;;;;;2.85;97.95;102295.00;5049453;28;20553;-82
2022/12/01 03:53:20;;;;;;;53.47;17.67;;;;;;;2.88;98.05;102298.09;5035003;28;20852;-81
2022/12/01 03:55:52;;;;;;;43.17;16.53;;;;;;;2.92;98.33;102298.47;5042446;28;20624;-82
2022/12/01 03:58:24;;;;;;;53.17;18.00;;;;;;;2.95;98.12;102300.75;5054973;28;20517;-81
2022/12/01 04:00:54;;;;;;;43.70;16.30;;;;;;;2.95;97.48;102300.75;5054597;28;20454;-81
2022/12/01 04:03:25;;;;;;;64.43;17.27;;;;;;;2.95;96.98;102306.94;5054487;28;20478;-81
2022/12/01 04:05:52;;;;;;;67.43;18.43;;;;;;;2.75;96.87;102309.63;5054400;28;21078;-81
2022/12/01 04:08:18;;;;;;;49.40;17.07;;;;;;;2.75;96.66;102306.13;5054657;28;20873;-81
2022/12/01 04:10:45;;;;;;;58.40;19.00;;;;;;;2.72;96.64;102307.34;5051238;28;21001;-81
2022/12/01 04:13:21;;;;;;;63.23;18.47;;;;;;;2.63;96.86;102303.25;5054170;28;20464;-81
2022/12/01 04:15:47;;;;;;;47.90;17.10;;;;;;;2.71;96.62;102315.59;5054655;28;20875;-81
2022/12/01 04:18:14;;;;;;;51.77;16.67;;;;;;;2.74;96.74;102312.50;5054900;28;20530;-81
2022/12/01 04:20:42;;;;;;;47.63;15.87;;;;;;;2.69;96.80;102297.06;5055944;28;20456;-78
2022/12/01 04:23:09;;;;;;;58.07;18.57;;;;;;;2.70;96.32;102301.41;5056520;28;20453;-77
2022/12/01 04:25:35;;;;;;;53.47;18.00;;;;;;;2.67;96.61;102299.13;5054000;28;21001;-78
2022/12/01 04:28:02;;;;;;;61.43;18.10;;;;;;;2.54;96.74;102301.81;5054814;28;20475;-81
2022/12/01 04:30:28;;;;;;;65.03;20.23;;;;;;;2.58;96.98;102303.03;5054828;28;20549;-81
2022/12/01 04:32:55;;;;;;;59.23;17.80;;;;;;;2.60;96.42;102308.19;5054537;28;20579;-80
2022/12/01 04:35:22;;;;;;;57.07;18.27;;;;;;;2.61;97.24;102309.81;5053598;28;20478;-80
2022/12/01 04:37:50;;;;;;;63.37;19.70;;;;;;;2.61;98.03;102309.81;5054521;28;20446;-80
2022/12/01 04:40:17;;;;;;;57.00;18.40;;;;;;;2.65;98.46;102306.53;5054310;28;20486;-80
2022/12/01 04:42:44;;;;;;;64.97;19.17;;;;;;;2.66;98.67;102305.50;5055116;28;20460;-80
2022/12/01 04:45:11;;;;;;;43.50;15.20;;;;;;;2.70;98.28;102306.75;5054340;28;20553;-80
2022/12/01 04:47:37;;;;;;;52.73;16.63;;;;;;;2.75;98.29;102312.31;5054646;28;20941;-80
2022/12/01 04:50:05;;;;;;;53.27;17.50;;;;;;;2.71;98.11;102311.06;5054370;28;20537;-80
2022/12/01 04:52:32;;;;;;;57.10;19.77;;;;;;;2.64;98.21;102310.22;5054514;28;20537;-81
2022/12/01 04:55:00;;;;;;;47.13;16.50;;;;;;;2.62;98.38;102316.84;5051805;28;20640;-78
2022/12/01 04:57:26;;;;;;;51.67;19.10;;;;;;;2.59;98.11;102319.91;5034365;28;20534;-80
2022/12/01 04:59:53;;;;;;;51.27;19.97;;;;;;;2.64;97.90;102318.25;5034968;28;20550;-81
2022/12/01 05:02:20;;;;;;;53.30;17.03;;;;;;;2.65;97.70;102325.25;5051014;28;20545;-78
2022/12/01 05:04:47;;;;;;;46.27;15.83;;;;;;;2.55;97.80;102314.13;5054848;28;20600;-78
2022/12/01 05:07:13;;;;;;;47.57;17.07;;;;;;;2.59;97.55;102323.41;5054902;28;20482;-80
2022/12/01 05:09:40;;;;;;;45.83;15.33;;;;;;;2.57;96.37;102320.13;5055124;28;21018;-80
2022/12/01 05:12:08;;;;;;;68.13;19.53;;;;;;;2.47;96.53;102330.38;5054778;28;20497;-79
2022/12/01 05:14:34;;;;;;;48.47;16.87;;;;;;;2.53;96.35;102321.56;5054168;28;20593;-79
2022/12/01 05:17:01;;;;;;;51.03;16.80;;;;;;;2.52;95.81;102315.38;5055327;28;20529;-79
2022/12/01 05:22:12;;;;;;;47.80;17.27;;;;;;;2.38;96.30;102315.56;5044694;28;20970;-79
2022/12/01 05:24:39;;;;;;;57.80;17.57;;;;;;;2.43;95.87;102319.25;5053088;28;20470;-78
2022/12/01 05:27:05;;;;;;;50.70;17.13;;;;;;;2.41;96.29;102329.34;5034094;28;20573;-78
2022/12/01 05:29:34;;;;;;;48.13;18.87;;;;;;;2.41;96.37;102325.84;5034430;28;20510;-78
2022/12/01 05:32:01;;;;;;;72.73;21.30;;;;;;;2.44;96.27;102325.47;5037263;28;20967;-78
2022/12/01 05:34:29;;;;;;;71.83;18.13;;;;;;;2.42;95.70;102325.63;5058398;28;20474;-77
2022/12/01 05:36:55;;;;;;;48.87;17.40;;;;;;;2.48;95.80;102332.06;5043327;28;20458;-76
2022/12/01 05:39:22;;;;;;;53.83;17.37;;;;;;;2.47;96.32;102335.72;5037275;28;20469;-77
2022/12/01 05:41:48;;;;;;;57.70;19.30;;;;;;;2.48;96.58;102337.41;5051786;28;20963;-78
2022/12/01 05:44:15;;;;;;;58.33;18.90;;;;;;;2.51;96.46;102336.97;5057619;28;20552;-78
2022/12/01 05:46:43;;;;;;;46.57;19.50;;;;;;;2.51;96.94;102336.97;5043887;28;20524;-78
2022/12/01 05:49:10;;;;;;;58.83;18.37;;;;;;;2.39;97.33;102339.44;5038592;28;20477;-77
2022/12/01 05:51:36;;;;;;;80.77;20.23;;;;;;;2.39;97.47;102336.75;5038397;28;20447;-78
2022/12/01 05:54:03;;;;;;;55.40;18.20;;;;;;;2.51;97.24;102339.66;5038157;28;20562;-78
2022/12/01 05:56:30;;;;;;;52.30;17.60;;;;;;;2.53;96.93;102341.09;5037660;28;21010;-77
2022/12/01 05:58:57;;;;;;;57.77;18.30;;;;;;;2.52;97.26;102344.81;5047618;28;20903;-79
2022/12/01 06:01:23;;;;;;;47.80;19.17;;;;;;;2.45;97.02;102340.47;5039408;28;20546;-77
2022/12/01 06:03:52;;;;;;;68.40;20.23;;;;;;;2.52;97.14;102342.13;5039460;28;20570;-77
2022/12/01 06:06:19;;;;;;;57.40;18.73;;;;;;;2.45;97.29;102343.16;5039101;28;20493;-78
2022/12/01 06:08:46;;;;;;;66.57;20.23;;;;;;;2.47;96.47;102344.56;5047243;28;20518;-78
2022/12/01 06:11:12;;;;;;;64.27;21.00;;;;;;;2.43;96.50;102348.69;5058078;28;20561;-79
2022/12/01 06:13:39;;;;;;;57.60;21.50;;;;;;;2.43;96.28;102346.00;5057992;28;20469;-79
2022/12/01 06:16:07;;;;;;;51.87;17.13;;;;;;;2.40;96.37;102350.94;5053600;28;20538;-79
2022/12/01 06:18:35;;;;;;;59.87;21.07;;;;;;;2.30;96.20;102340.63;5041313;28;21003;-79
2022/12/01 06:21:04;;;;;;;70.90;19.93;;;;;;;2.36;95.81;102342.50;5056853;28;20549;-79
2022/12/01 06:23:31;;;;;;;57.20;21.33;;;;;;;2.41;95.46;102341.91;5057783;28;20493;-79
2022/12/01 06:25:57;;;;;;;55.10;18.87;;;;;;;2.33;96.46;102345.56;5057176;28;20569;-77
2022/12/01 06:28:24;;;;;;;64.00;19.70;;;;;;;2.25;97.07;102349.25;5050897;28;20479;-78
2022/12/01 06:30:51;;;;;;;49.60;18.10;;;;;;;2.24;97.71;102355.63;5042667;28;20538;-79
2022/12/01 06:33:18;;;;;;;50.53;19.50;;;;;;;2.28;96.52;102348.84;5061673;28;20442;-78
2022/12/01 06:35:44;;;;;;;47.73;17.47;;;;;;;2.30;95.66;102353.19;5058742;28;20533;-79
2022/12/01 06:38:12;;;;;;;63.47;18.67;;;;;;;2.31;95.43;102358.34;5056680;28;20550;-79
2022/12/01 06:40:39;;;;;;;53.60;20.97;;;;;;;2.26;95.43;102356.28;5057283;28;20484;-77
2022/12/01 06:43:05;;;;;;;51.13;17.73;;;;;;;2.20;96.28;102362.41;5057114;28;20482;-78
2022/12/01 06:45:32;;;;;;;48.53;18.90;;;;;;;2.30;95.55;102355.84;5065723;28;20550;-78
2022/12/01 06:47:59;;;;;;;52.23;18.90;;;;;;;2.31;95.25;102357.53;5064109;28;20490;-79
2022/12/01 06:50:26;;;;;;;60.30;19.70;;;;;;;2.25;95.28;102362.63;5060130;28;20489;-79
2022/12/01 06:52:53;;;;;;;51.73;18.30;;;;;;;2.27;95.51;102368.59;5061007;28;20480;-79
2022/12/01 06:55:21;;;;;;;53.67;18.53;;;;;;;2.33;95.26;102363.47;5058424;28;20482;-79
2022/12/01 06:57:48;;;;;;;63.10;18.93;;;;;;;2.29;95.86;102371.06;5057559;28;20864;-79
2022/12/01 07:00:15;;;;;;;51.97;19.13;;;;;;;2.33;95.89;102375.00;5057378;28;20541;-78
2022/12/01 07:02:42;;;;;;;47.40;18.87;;;;;;;2.40;96.03;102367.00;5057583;28;20473;-78
2022/12/01 07:05:09;;;;;;;66.33;20.97;;;;;;;2.32;96.55;102376.03;5055949;28;20893;-78
2022/12/01 07:07:37;;;;;;;53.90;17.87;;;;;;;2.41;95.93;102374.00;5055599;28;20481;-77
2022/12/01 07:10:04;;;;;;;56.13;20.77;;;;;;;2.35;96.15;102374.81;5054574;28;20457;-77
2022/12/01 07:12:32;;;;;;;58.57;20.77;;;;;;;2.38;96.23;102371.72;5055055;28;20904;-77
2022/12/01 07:14:58;;;;;;;64.53;21.83;;;;;;;2.38;96.13;102379.72;5056860;28;20553;-79
2022/12/01 07:17:25;;;;;;;46.83;19.77;;;;;;;2.34;96.66;102384.66;5055065;28;20462;-80
2022/12/01 07:19:52;;;;;;;59.57;20.23;;;;;;;2.41;96.53;102368.63;5056341;28;20536;-78
2022/12/01 07:22:18;;;;;;;51.27;18.33;;;;;;;2.44;96.27;102374.41;5055413;28;20553;-78
2022/12/01 07:24:45;;;;;;;53.30;20.23;;;;;;;2.33;96.73;102379.50;5056793;28;20545;-78
2022/12/01 07:27:12;;;;;;;51.57;19.03;;;;;;;2.34;95.76;102371.28;5055714;28;20569;-78
2022/12/01 07:29:39;;;;;;;80.57;23.63;;;;;;;2.31;95.45;102373.56;5054548;28;20545;-77
2022/12/01 07:32:06;;;;;;;56.03;22.07;;;;;;;2.25;95.11;102383.19;5054813;28;20910;-79
2022/12/01 07:34:33;;;;;;;49.10;18.93;;;;;;;2.34;95.46;102378.47;5055385;28;20553;-80
2022/12/01 07:36:59;;;;;;;52.93;17.90;;;;;;;2.34;95.14;102383.84;5054756;28;20541;-80
2022/12/01 07:39:26;;;;;;;59.80;21.10;;;;;;;2.35;94.65;102385.50;5055162;28;20564;-77
2022/12/01 07:41:52;;;;;;;66.20;21.33;;;;;;;2.29;94.77;102381.75;5056161;28;20985;-78
2022/12/01 07:44:19;;;;;;;78.83;21.83;;;;;;;2.31;94.64;102384.25;5054766;28;20565;-77
2022/12/01 07:46:47;;;;;;;66.27;20.07;;;;;;;2.28;94.82;102386.28;5056175;28;20568;-79
2022/12/01 07:49:14;;;;;;;55.40;19.93;;;;;;;2.36;94.67;102395.16;5056630;28;20462;-78
2022/12/01 07:51:41;;;;;;;65.40;21.43;;;;;;;2.34;94.05;102387.31;5055794;28;20438;-77
2022/12/01 07:54:08;;;;;;;71.93;20.63;;;;;;;2.41;94.14;102390.03;5052517;28;20573;-78
2022/12/01 07:56:34;;;;;;;58.33;21.50;;;;;;;2.37;93.74;102391.47;5051496;28;20454;-80
2022/12/01 07:59:01;;;;;;;49.57;18.57;;;;;;;2.37;93.58;102388.78;5052309;28;20906;-80
2022/12/01 08:01:27;;;;;;;61.23;20.20;;;;;;;2.39;94.44;102386.72;5054976;28;20478;-79
2022/12/01 08:03:57;;;;;;;54.47;20.37;;;;;;;2.34;94.63;102395.34;5055555;28;20552;-79
2022/12/01 08:06:25;;;;;;;51.10;19.90;;;;;;;2.41;94.48;102400.72;5055004;28;20604;-80
2022/12/01 08:08:52;;;;;;;58.93;22.00;;;;;;;2.50;94.34;102389.63;5055031;28;20534;-80
2022/12/01 08:11:21;;;;;;;58.63;22.53;;;;;;;2.59;94.50;102392.13;5055051;28;20533;-79
2022/12/01 08:13:49;;;;;;;71.03;23.37;;;;;;;2.63;94.30;102394.19;5055419;28;20562;-79
2022/12/01 08:16:18;;;;;;;66.00;22.90;;;;;;;2.67;93.84;102398.13;5055059;28;20987;-78
2022/12/01 08:18:46;;;;;;;68.20;20.40;;;;;;;2.51;94.43;102398.47;5055199;28;20533;-76
2022/12/01 08:21:17;;;;;;;67.90;23.93;;;;;;;2.52;94.17;102402.78;5053797;28;20521;-77
2022/12/01 08:23:44;;;;;;;72.50;21.20;;;;;;;2.55;93.93;102404.25;5053776;28;20546;-77
2022/12/01 08:26:13;;;;;;;61.43;22.23;;;;;;;2.64;93.93;102398.50;5054341;28;20572;-80
2022/12/01 08:28:40;;;;;;;77.03;21.80;;;;;;;2.68;93.80;102402.44;5056442;28;20991;-80
2022/12/01 08:31:08;;;;;;;77.87;25.10;;;;;;;2.73;93.78;102402.63;5056128;28;20470;-80
2022/12/01 08:33:35;;;;;;;70.67;22.77;;;;;;;2.77;93.97;102401.22;5056818;28;20434;-80
2022/12/01 08:36:02;;;;;;;69.77;23.83;;;;;;;2.80;93.67;102405.34;5055783;28;20474;-79
2022/12/01 08:38:30;;;;;;;77.63;23.47;;;;;;;2.85;93.80;102404.72;5057765;28;20528;-78
2022/12/01 08:41:00;;;;;;;101.03;27.37;;;;;;;2.86;92.74;102409.03;5057365;28;20530;-79
2022/12/01 08:43:26;;;;;;;85.40;26.80;;;;;;;2.79;93.40;102406.38;5058273;28;20454;-78
2022/12/01 08:45:53;;;;;;;85.10;25.97;;;;;;;2.74;92.83;102404.28;5057258;28;20537;-79
2022/12/01 08:48:20;;;;;;;88.83;26.40;;;;;;;2.70;92.87;102403.06;5057785;28;20843;-79
2022/12/01 08:50:46;;;;;;;92.93;27.30;;;;;;;2.78;92.85;102407.38;5057740;28;20518;-79
2022/12/01 08:53:13;;;;;;;79.10;26.53;;;;;;;2.83;92.38;102406.75;5056262;28;20502;-78
2022/12/01 08:55:41;;;;;;;89.90;25.80;;;;;;;2.83;92.96;102404.91;5056016;28;20549;-78
2022/12/01 08:58:07;;;;;;;67.63;25.33;;;;;;;2.87;92.99;102405.34;5055009;28;20510;-78
2022/12/01 09:00:34;;;;;;;90.63;29.53;;;;;;;2.95;92.96;102410.50;5057890;28;20452;-78
2022/12/01 09:03:01;;;;;;;76.20;26.83;;;;;;;2.93;92.23;102409.88;5058169;28;20437;-79
2022/12/01 09:05:28;;;;;;;96.80;27.97;;;;;;;2.89;92.76;102411.31;5059336;28;20458;-78
2022/12/01 09:10:35;;;;;;;78.60;25.50;;;;;;;2.93;92.59;102413.38;5062602;28;20442;-78
2022/12/01 09:13:03;;;;;;;101.37;29.83;;;;;;;2.95;92.20;102423.88;5063337;28;20484;-79
2022/12/01 09:15:30;;;;;;;61.83;22.43;;;;;;;2.92;92.01;102421.59;5063234;28;20504;-79
2022/12/01 09:17:56;;;;;;;94.00;26.57;;;;;;;2.91;92.38;102422.63;5055871;28;20557;-78
2022/12/01 09:20:23;;;;;;;92.40;25.77;;;;;;;2.84;92.24;102421.81;5060967;28;20529;-78
2022/12/01 09:22:50;;;;;;;85.17;29.40;;;;;;;2.82;92.66;102405.94;5061230;28;20560;-78
2022/12/01 09:25:16;;;;;;;87.63;27.80;;;;;;;2.85;92.50;102423.47;5057640;28;20482;-78
2022/12/01 09:27:43;;;;;;;82.57;27.17;;;;;;;2.88;92.72;102413.16;5059334;28;20910;-79
2022/12/01 09:30:12;;;;;;;82.33;27.37;;;;;;;2.95;92.49;102413.97;5058425;28;20489;-79
2022/12/01 09:32:39;;;;;;;88.57;26.63;;;;;;;3.08;91.82;102409.66;5057620;28;20542;-78
2022/12/01 09:35:05;;;;;;;74.47;26.07;;;;;;;3.11;90.81;102418.13;5057167;28;20553;-78
2022/12/01 09:37:32;;;;;;;70.23;24.73;;;;;;;2.99;90.50;102411.72;5059624;28;20537;-77
2022/12/01 09:39:59;;;;;;;96.60;28.70;;;;;;;2.95;90.49;102410.50;5059144;28;20458;-78
2022/12/01 09:42:26;;;;;;;82.27;24.77;;;;;;;2.95;90.09;102413.16;5059537;28;20596;-79
2022/12/01 09:44:54;;;;;;;66.47;23.70;;;;;;;2.96;90.05;102404.91;5060617;28;20506;-78
2022/12/01 09:47:27;;;;;;;79.33;25.20;;;;;;;2.93;90.04;102408.03;5059731;28;20485;-78
2022/12/01 09:49:59;;;;;;;72.83;24.80;;;;;;;2.93;89.41;102404.53;5058325;28;20573;-78
2022/12/01 09:52:28;;;;;;;98.93;25.53;;;;;;;2.95;89.48;102410.50;5059929;28;21002;-78
2022/12/01 09:54:58;;;;;;;89.60;25.10;;;;;;;2.93;89.66;102409.88;5061009;28;20477;-79
2022/12/01 09:57:30;;;;;;;89.07;27.13;;;;;;;2.91;90.01;102407.38;5059243;28;22063;-78
2022/12/01 09:59:58;;;;;;;84.70;26.50;;;;;;;2.94;91.05;102407.00;5057833;28;20584;-78
2022/12/01 10:02:33;;;;;;;99.60;28.73;;;;;;;2.95;91.07;102399.78;5056752;28;20812;-79
2022/12/01 10:05:04;;;;;;;60.37;21.03;;;;;;;2.83;91.02;102393.38;5055434;28;21034;-78
2022/12/01 10:07:36;;;;;;;85.00;23.83;;;;;;;2.77;92.05;102398.53;5055321;28;20473;-77
2022/12/01 10:10:06;;;;;;;80.50;25.80;;;;;;;2.77;91.63;102395.84;5057855;28;20465;-78
2022/12/01 10:12:35;;;;;;;73.70;23.97;;;;;;;2.67;91.61;102392.75;5058188;28;20533;-79
2022/12/01 10:15:15;;;;;;;64.00;23.00;;;;;;;2.73;91.69;102389.25;5061598;28;20490;-79
2022/12/01 10:18:06;;;;;;;73.67;26.30;;;;;;;2.77;91.19;102385.16;5059953;28;20450;-79
2022/12/01 10:20:40;;;;;;;81.90;24.40;;;;;;;2.86;90.30;102393.81;5060392;28;20462;-79
2022/12/01 10:23:39;;;;;;;73.20;23.47;;;;;;;2.78;90.10;102392.16;5055533;28;20517;-79
2022/12/01 10:26:13;;;;;;;80.10;24.33;;;;;;;2.78;89.71;102391.31;5059145;28;20450;-79
2022/12/01 10:28:56;;;;;;;60.07;21.50;;;;;;;2.81;90.11;102384.75;5059913;28;20520;-79
2022/12/01 10:31:30;;;;;;;74.87;24.97;;;;;;;2.72;90.52;102387.63;5058632;28;20545;-79
2022/12/01 10:34:00;;;;;;;76.13;25.10;;;;;;;2.81;90.74;102380.22;5056901;28;20956;-79
2022/12/01 10:36:29;;;;;;;64.20;24.70;;;;;;;2.81;90.02;102376.72;5055913;28;20608;-79
2022/12/01 10:38:55;;;;;;;75.57;23.77;;;;;;;2.83;89.59;102380.00;5057888;28;20490;-79
2022/12/01 10:41:25;;;;;;;64.13;21.77;;;;;;;2.83;89.86;102382.69;5057575;28;21011;-79
2022/12/01 10:43:59;;;;;;;70.97;25.10;;;;;;;2.84;90.89;102379.81;5057197;28;20557;-79
2022/12/01 10:46:32;;;;;;;62.13;19.47;;;;;;;2.95;90.66;102381.03;5056759;28;20427;-79
2022/12/01 10:49:08;;;;;;;64.63;19.83;;;;;;;2.89;89.88;102379.19;5055204;28;20521;-78
2022/12/01 10:51:50;;;;;;;63.63;21.67;;;;;;;2.87;89.83;102378.56;5059080;28;20545;-79
2022/12/01 10:54:17;;;;;;;64.00;21.40;;;;;;;2.97;89.19;102377.16;5058320;28;21003;-79
2022/12/01 10:56:47;;;;;;;65.93;20.73;;;;;;;3.03;88.45;102383.53;5058649;28;20553;-79
2022/12/01 10:59:30;;;;;;;60.13;23.20;;;;;;;3.06;88.22;102383.13;5059212;28;20531;-79
2022/12/01 11:01:58;;;;;;;68.90;23.37;;;;;;;3.03;88.29;102381.66;5057471;28;20537;-79
2022/12/01 11:04:34;;;;;;;63.07;21.33;;;;;;;3.06;89.87;102375.09;5056358;28;20897;-79
2022/12/01 11:07:01;;;;;;;68.60;21.83;;;;;;;3.13;89.16;102378.56;5057878;28;20549;-79
2022/12/01 11:09:30;;;;;;;65.37;22.20;;;;;;;3.12;89.02;102373.44;5056069;28;20549;-79
2022/12/01 11:11:58;;;;;;;57.23;20.70;;;;;;;3.15;88.91;102379.19;5056102;28;20466;-79
2022/12/01 11:14:41;;;;;;;63.10;22.63;;;;;;;3.15;89.12;102371.16;5056013;28;20565;-79
2022/12/01 11:17:27;;;;;;;61.77;19.00;;;;;;;3.15;89.18;102365.00;5056889;28;20424;-78
2022/12/01 11:19:56;;;;;;;59.90;21.87;;;;;;;3.17;89.10;102363.75;5055049;28;20540;-77
2022/12/01 11:22:25;;;;;;;58.97;21.50;;;;;;;3.17;89.26;102365.59;5055615;28;20525;-78
2022/12/01 11:25:01;;;;;;;57.13;20.20;;;;;;;3.12;88.04;102360.03;5055082;28;20537;-78
2022/12/01 11:27:33;;;;;;;63.40;20.70;;;;;;;3.13;89.04;102362.50;5056797;28;20530;-78
2022/12/01 11:30:03;;;;;;;45.90;18.63;;;;;;;3.13;87.98;102365.19;5057094;28;20430;-78
2022/12/01 11:32:32;;;;;;;61.07;22.03;;;;;;;3.13;87.45;102364.38;5057371;28;20436;-78